createdAt,value
2022-09-01T00:02:36.657Z,1.08
2022-09-01T00:07:42.946Z,1.41
2022-09-01T00:12:50.366Z,1.25
2022-09-01T00:17:56.634Z,1.30
2022-09-01T00:23:02.864Z,1.13
2022-09-01T00:28:09.316Z,1.23
2022-09-01T00:33:15.590Z,1.34
2022-09-01T00:38:21.808Z,1.21
2022-09-01T00:43:28.098Z,1.16
2022-09-01T00:48:34.442Z,1.24
2022-09-01T00:53:40.689Z,1.23
2022-09-01T00:58:46.927Z,1.38
2022-09-01T01:03:53.277Z,1.31
2022-09-01T01:08:59.476Z,1.23
2022-09-01T01:14:05.617Z,1.08
2022-09-01T01:19:11.983Z,1.23
2022-09-01T01:24:18.108Z,1.29
2022-09-01T01:29:24.681Z,1.19
2022-09-01T01:34:31.262Z,1.16
2022-09-01T01:39:37.774Z,1.15
2022-09-01T01:44:43.951Z,1.16
2022-09-01T01:49:50.630Z,1.25
2022-09-01T01:54:56.827Z,1.23
2022-09-01T02:00:03.255Z,1.35
2022-09-01T02:05:09.430Z,1.37
2022-09-01T02:10:15.237Z,1.22
2022-09-01T02:15:21.457Z,1.21
2022-09-01T02:20:27.742Z,1.17
2022-09-01T02:25:33.919Z,1.26
2022-09-01T02:30:40.237Z,1.35
2022-09-01T02:35:46.469Z,1.35
2022-09-01T02:40:52.921Z,1.43
2022-09-01T02:45:59.176Z,1.30
2022-09-01T02:51:05.493Z,1.49
2022-09-01T02:56:11.624Z,1.54
2022-09-01T03:01:18.339Z,1.58
2022-09-01T03:06:24.836Z,1.61
2022-09-01T03:11:31.002Z,1.64
2022-09-01T03:16:37.594Z,1.65
2022-09-01T03:21:43.781Z,1.41
2022-09-01T03:26:50.298Z,1.38
2022-09-01T03:31:55.790Z,1.51
2022-09-01T03:37:01.987Z,1.50
2022-09-01T03:42:08.340Z,1.64
2022-09-01T03:47:14.854Z,1.79
2022-09-01T03:52:21.286Z,1.60
2022-09-01T03:57:27.581Z,1.80
2022-09-01T04:02:33.487Z,1.59
2022-09-01T04:07:39.949Z,1.61
2022-09-01T04:12:46.241Z,1.57
2022-09-01T04:18:38.198Z,1.62
2022-09-01T04:23:44.445Z,1.82
2022-09-01T04:28:50.675Z,1.81
2022-09-01T04:33:56.930Z,1.82
2022-09-01T04:39:46.643Z,1.92
2022-09-01T04:44:52.940Z,1.59
2022-09-01T04:49:59.152Z,1.69
2022-09-01T04:55:05.538Z,1.82
2022-09-01T05:00:11.742Z,1.75
2022-09-01T05:05:18.094Z,1.74
2022-09-01T05:10:24.230Z,2.03
2022-09-01T05:15:30.618Z,1.86
2022-09-01T05:20:36.782Z,1.77
2022-09-01T05:25:44.949Z,1.73
2022-09-01T05:30:52.018Z,1.95
2022-09-01T05:35:59.710Z,1.82
2022-09-01T05:41:05.982Z,1.62
2022-09-01T05:46:12.397Z,1.72
2022-09-01T05:51:42.847Z,1.50
2022-09-01T05:56:24.409Z,1.71
2022-09-01T06:01:30.543Z,1.58
2022-09-01T06:06:48.916Z,1.53
2022-09-01T06:11:42.350Z,1.59
2022-09-01T06:16:48.571Z,1.45
2022-09-01T06:21:54.817Z,1.63
2022-09-01T06:27:01.081Z,1.61
2022-09-01T06:32:07.250Z,1.62
2022-09-01T06:37:13.581Z,1.55
2022-09-01T06:42:19.621Z,1.79
2022-09-01T06:47:25.864Z,1.79
2022-09-01T07:02:43.650Z,2.00
2022-09-01T07:08:05.660Z,1.87
2022-09-01T07:13:06.289Z,1.81
2022-09-01T07:18:01.321Z,1.80
2022-09-01T07:23:07.438Z,1.77
2022-09-01T07:28:15.863Z,1.46
2022-09-01T07:33:44.429Z,1.75
2022-09-01T07:38:49.601Z,1.69
2022-09-01T07:39:57.654Z,1.70
2022-09-01T07:42:57.432Z,1.59
2022-09-01T07:43:32.827Z,1.54
2022-09-01T07:49:01.779Z,1.42
2022-09-01T07:53:42.541Z,1.58
2022-09-01T07:58:48.881Z,1.33
2022-09-01T08:03:55.104Z,1.47
2022-09-01T08:09:01.519Z,1.41
2022-09-01T08:14:07.203Z,1.37
2022-09-01T08:19:16.890Z,1.55
2022-09-01T08:24:19.263Z,1.21
2022-09-01T08:29:25.712Z,1.18
2022-09-01T08:34:31.818Z,1.41
2022-09-01T08:39:38.127Z,1.87
2022-09-01T08:44:44.398Z,1.41
2022-09-01T08:49:50.643Z,1.40
2022-09-01T08:54:56.768Z,1.38
2022-09-01T09:00:03.919Z,1.30
2022-09-01T09:05:16.301Z,1.13
2022-09-01T09:10:16.076Z,1.12
2022-09-01T09:15:22.204Z,1.09
2022-09-01T09:20:28.483Z,1.16
2022-09-01T09:25:34.633Z,1.16
2022-09-01T09:30:40.979Z,1.26
2022-09-01T09:35:47.061Z,0.85
2022-09-01T09:41:10.390Z,1.08
2022-09-01T09:45:59.264Z,0.91
2022-09-01T09:51:07.623Z,0.81
2022-09-01T09:56:11.202Z,0.75
2022-09-01T10:01:17.994Z,0.74
2022-09-01T10:06:23.685Z,0.89
2022-09-01T10:11:35.598Z,0.82
2022-09-01T10:16:35.190Z,1.01
2022-09-01T10:21:41.624Z,0.74
2022-09-01T10:26:47.801Z,0.71
2022-09-01T10:32:14.823Z,0.79
2022-09-01T10:36:59.622Z,0.63
2022-09-01T10:42:05.815Z,0.81
2022-09-01T10:47:14.694Z,0.98
2022-09-01T10:52:17.869Z,0.65
2022-09-01T10:57:27.022Z,0.56
2022-09-01T11:02:35.773Z,0.61
2022-09-01T11:12:42.066Z,0.58
2022-09-01T11:17:47.318Z,0.79
2022-09-01T11:22:53.531Z,0.74
2022-09-01T11:27:59.728Z,0.60
2022-09-01T11:33:05.937Z,0.75
2022-09-01T11:38:12.161Z,0.65
2022-09-01T11:43:18.526Z,0.71
2022-09-01T11:48:24.455Z,0.72
2022-09-01T11:53:30.677Z,0.84
2022-09-01T11:59:26.306Z,0.76
2022-09-01T12:04:32.970Z,0.87
2022-09-01T12:09:39.149Z,0.85
2022-09-01T12:15:04.809Z,0.63
2022-09-01T12:19:51.092Z,0.80
2022-09-01T12:24:57.411Z,0.80
2022-09-01T12:30:03.633Z,0.74
2022-09-01T12:35:11.701Z,0.79
2022-09-01T12:40:15.664Z,0.78
2022-09-01T12:45:22.362Z,0.82
2022-09-01T12:50:29.757Z,0.86
2022-09-01T12:55:48.409Z,0.81
2022-09-01T13:00:40.341Z,0.64
2022-09-01T13:05:46.705Z,0.68
2022-09-01T13:10:53.059Z,0.77
2022-09-01T13:15:59.533Z,0.72
2022-09-01T13:21:05.664Z,0.75
2022-09-01T13:26:12.010Z,0.68
2022-09-01T13:31:34.312Z,0.66
2022-09-01T13:36:49.230Z,0.61
2022-09-01T13:41:29.707Z,0.66
2022-09-01T13:46:58.977Z,0.57
2022-09-01T13:51:41.967Z,0.66
2022-09-01T13:56:48.874Z,0.83
2022-09-01T14:01:55.047Z,0.72
2022-09-01T14:07:01.384Z,0.71
2022-09-01T14:12:08.016Z,0.75
2022-09-01T14:17:14.475Z,0.68
2022-09-01T14:22:20.607Z,0.66
2022-09-01T14:27:26.893Z,0.71
2022-09-01T14:32:33.077Z,0.70
2022-09-01T14:37:39.337Z,0.89
2022-09-01T14:42:45.423Z,0.79
2022-09-01T14:47:51.919Z,0.91
2022-09-01T14:52:58.190Z,0.84
2022-09-01T14:58:04.025Z,0.84
2022-09-01T15:03:10.152Z,0.71
2022-09-01T15:08:17.830Z,0.57
2022-09-01T15:13:22.326Z,0.72
2022-09-01T15:18:28.541Z,0.86
2022-09-01T15:23:34.704Z,0.63
2022-09-01T15:28:40.962Z,0.69
2022-09-01T15:33:47.109Z,0.81
2022-09-01T15:38:53.582Z,0.81
2022-09-01T15:43:59.706Z,0.85
2022-09-01T15:49:06.005Z,1.03
2022-09-01T15:54:12.111Z,1.03
2022-09-01T15:59:18.387Z,1.08
2022-09-01T16:04:27.763Z,1.12
2022-09-01T16:09:31.089Z,0.97
2022-09-01T16:14:37.293Z,0.82
2022-09-01T16:19:43.656Z,0.90
2022-09-01T16:24:49.801Z,0.70
2022-09-01T16:29:56.003Z,0.76
2022-09-01T16:35:02.188Z,0.95
2022-09-01T16:40:10.224Z,0.82
2022-09-01T16:45:14.262Z,0.94
2022-09-01T16:50:19.981Z,0.68
2022-09-01T16:55:26.184Z,0.89
2022-09-01T17:00:32.608Z,0.81
2022-09-01T17:05:38.781Z,0.84
2022-09-01T17:10:44.949Z,0.84
2022-09-01T17:15:51.179Z,0.87
2022-09-01T17:20:58.250Z,0.82
2022-09-01T17:26:03.201Z,0.84
2022-09-01T17:31:09.550Z,0.80
2022-09-01T17:36:15.940Z,0.75
2022-09-01T17:41:22.134Z,0.65
2022-09-01T17:46:28.397Z,0.91
2022-09-01T17:51:34.759Z,0.89
2022-09-01T17:56:40.934Z,0.93
2022-09-01T18:02:58.330Z,0.90
2022-09-01T18:08:04.521Z,0.81
2022-09-01T18:13:11.373Z,1.00
2022-09-01T18:18:16.678Z,0.95
2022-09-01T18:23:23.059Z,0.96
2022-09-01T18:28:29.427Z,0.92
2022-09-01T18:33:35.266Z,1.11
2022-09-01T18:38:41.462Z,0.88
2022-09-01T18:43:47.775Z,0.82
2022-09-01T18:48:53.952Z,1.03
2022-09-01T18:54:00.269Z,1.23
2022-09-01T18:59:06.482Z,0.98
2022-09-01T19:04:12.827Z,0.95
2022-09-01T19:09:19.066Z,0.80
2022-09-01T19:14:25.636Z,0.93
2022-09-01T19:19:31.992Z,0.96
2022-09-01T19:24:45.010Z,0.90
2022-09-01T19:29:41.247Z,1.08
2022-09-01T19:34:47.760Z,1.20
2022-09-01T19:39:54.439Z,1.06
2022-09-01T19:44:59.738Z,0.93
2022-09-01T19:50:05.506Z,0.94
2022-09-01T19:55:11.761Z,1.01
2022-09-01T20:00:18.030Z,0.84
2022-09-01T20:05:24.333Z,1.14
2022-09-01T20:10:30.626Z,1.16
2022-09-01T20:15:36.944Z,0.93
2022-09-01T20:20:43.277Z,0.91
2022-09-01T20:25:49.583Z,0.99
2022-09-01T20:30:55.778Z,0.98
2022-09-01T20:36:02.030Z,1.12
2022-09-01T20:41:08.298Z,0.87
2022-09-01T20:46:14.622Z,0.96
2022-09-01T20:51:20.802Z,1.08
2022-09-01T20:56:27.159Z,0.99
2022-09-01T21:01:33.358Z,0.83
2022-09-01T21:06:39.878Z,1.05
2022-09-01T21:11:46.122Z,0.97
2022-09-01T21:16:52.474Z,1.07
2022-09-01T21:21:58.583Z,1.09
2022-09-01T21:27:04.830Z,0.95
2022-09-01T21:32:10.949Z,0.92
2022-09-01T21:37:17.438Z,1.05
2022-09-01T21:42:26.855Z,0.93
2022-09-01T21:47:33.245Z,0.96
2022-09-01T21:52:39.369Z,1.04
2022-09-01T21:57:45.654Z,1.08
2022-09-01T22:02:51.962Z,1.01
2022-09-01T22:07:58.234Z,1.01
2022-09-01T22:13:04.406Z,0.97
2022-09-01T22:18:10.832Z,0.98
2022-09-01T22:23:17.203Z,0.94
2022-09-01T22:28:23.458Z,0.93
2022-09-01T22:33:29.597Z,1.00
2022-09-01T22:38:35.511Z,1.03
2022-09-01T22:43:41.778Z,0.95
2022-09-01T22:48:48.428Z,0.85
2022-09-01T22:53:54.596Z,0.82
2022-09-01T22:59:01.174Z,0.94
2022-09-01T23:04:07.313Z,1.14
2022-09-01T23:09:13.520Z,1.06
2022-09-01T23:14:19.629Z,0.93
2022-09-01T23:19:26.276Z,1.03
2022-09-01T23:24:32.481Z,1.01
2022-09-01T23:29:38.802Z,0.98
2022-09-01T23:34:44.917Z,1.04
2022-09-01T23:39:51.582Z,1.06
2022-09-01T23:44:57.821Z,1.06
2022-09-01T23:50:04.123Z,1.06
2022-09-01T23:55:10.355Z,1.16
